Time,TemperatureF,DewpointF,PressureIn,WindDirection,WindDirectionDegrees,WindSpeedMPH,WindSpeedGustMPH,Humidity,HourlyPrecipIn,Conditions,Clouds,dailyrainin,SolarRadiationWatts/m^2,SoftwareType,DateUTC
2013-11-08 00:02:00,46.7,42.7,29.99,NW,306,0.0,0.0,86,0.00,,,0.00,0,WeatherCatV1.23B14,2013-11-08 08:02:00,
2013-11-08 00:07:00,46.5,42.5,29.99,NW,325,0.0,0.0,86,0.00,,,0.00,0,WeatherCatV1.23B14,2013-11-08 08:07:00,
2013-11-08 00:12:00,46.4,42.7,29.99,WNW,301,0.0,0.0,87,0.00,,,0.00,0,WeatherCatV1.23B14,2013-11-08 08:12:00,
2013-11-08 00:17:00,46.2,42.5,30.00,NNW,330,0.0,0.0,87,0.00,,,0.00,0,WeatherCatV1.23B14,2013-11-08 08:17:00,
2013-11-08 00:22:00,46.1,42.5,30.00,NW,320,0.0,0.0,87,0.00,,,0.00,0,WeatherCatV1.23B14,2013-11-08 08:22:00,
2013-11-08 00:27:00,45.8,42.2,30.00,NW,326,0.0,0.0,87,0.00,,,0.00,0,WeatherCatV1.23B14,2013-11-08 08:27:00,
2013-11-08 00:37:00,45.8,42.2,30.00,NNW,336,0.0,0.0,87,0.00,,,0.00,0,WeatherCatV1.23B14,2013-11-08 08:37:00,
2013-11-08 00:42:00,45.5,42.2,30.00,NNW,335,0.0,0.0,88,0.00,,,0.00,0,WeatherCatV1.23B14,2013-11-08 08:42:00,
2013-11-08 00:47:00,45.5,42.2,30.00,NNW,330,0.0,0.0,88,0.00,,,0.00,0,WeatherCatV1.23B14,2013-11-08 08:47:00,
2013-11-08 00:52:00,45.4,42.1,30.00,NNW,329,0.0,0.0,88,0.00,,,0.00,0,WeatherCatV1.23B14,2013-11-08 08:52:00,
2013-11-08 00:57:00,45.4,42.1,30.00,NNW,330,0.0,0.0,88,0.00,,,0.00,0,WeatherCatV1.23B14,2013-11-08 08:57:00,
2013-11-08 01:02:00,45.4,42.1,30.00,NNW,330,0.0,0.0,88,0.00,,,0.00,0,WeatherCatV1.23B14,2013-11-08 09:02:00,
2013-11-08 01:07:00,45.1,41.8,30.00,NNW,332,0.0,0.0,88,0.00,,,0.00,0,WeatherCatV1.23B14,2013-11-08 09:07:00,
2013-11-08 01:17:00,44.9,41.9,30.00,NNW,335,0.0,0.0,89,0.00,,,0.00,0,WeatherCatV1.23B14,2013-11-08 09:17:00,
2013-11-08 01:22:00,44.9,41.9,30.00,NNW,332,0.0,0.0,89,0.00,,,0.00,0,WeatherCatV1.23B14,2013-11-08 09:22:00,
2013-11-08 01:27:00,44.8,41.8,30.00,NNW,336,0.0,0.0,89,0.00,,,0.00,0,WeatherCatV1.23B14,2013-11-08 09:27:00,
2013-11-08 01:32:00,44.8,41.8,30.00,NNW,335,0.0,0.0,89,0.00,,,0.00,0,WeatherCatV1.23B14,2013-11-08 09:32:00,
2013-11-08 01:37:00,44.6,41.6,30.00,NNW,333,0.0,0.0,89,0.00,,,0.00,0,WeatherCatV1.23B14,2013-11-08 09:37:00,
2013-11-08 01:42:00,44.6,41.6,30.00,NNW,333,0.0,0.0,89,0.00,,,0.00,0,WeatherCatV1.23B14,2013-11-08 09:42:00,
2013-11-08 01:47:00,44.6,41.6,30.00,NNW,333,0.0,0.0,89,0.00,,,0.00,0,WeatherCatV1.23B14,2013-11-08 09:47:00,
2013-11-08 01:52:00,44.5,41.5,30.00,NNW,333,0.0,0.0,89,0.00,,,0.00,0,WeatherCatV1.23B14,2013-11-08 09:52:00,
2013-11-08 02:02:00,44.3,41.3,30.00,NNW,329,0.0,0.0,89,0.00,,,0.00,0,WeatherCatV1.23B14,2013-11-08 10:02:00,
2013-11-08 02:07:00,44.2,41.2,30.00,NW,315,0.0,0.0,89,0.00,,,0.00,0,WeatherCatV1.23B14,2013-11-08 10:07:00,
2013-11-08 02:12:00,44.1,41.1,30.00,NW,318,0.0,0.0,89,0.00,,,0.00,0,WeatherCatV1.23B14,2013-11-08 10:12:00,
2013-11-08 02:17:00,44.1,41.1,30.00,NW,319,0.0,0.0,89,0.00,,,0.00,0,WeatherCatV1.23B14,2013-11-08 10:17:00,
2013-11-08 02:22:00,44.1,41.1,30.00,NW,316,0.0,0.0,89,0.00,,,0.00,0,WeatherCatV1.23B14,2013-11-08 10:22:00,
2013-11-08 02:27:00,43.9,40.9,30.00,NW,318,0.0,0.0,89,0.00,,,0.00,0,WeatherCatV1.23B14,2013-11-08 10:27:00,
2013-11-08 02:32:00,43.9,40.9,29.99,NW,313,0.0,0.0,89,0.00,,,0.00,0,WeatherCatV1.23B14,2013-11-08 10:32:00,
2013-11-08 02:37:00,43.9,40.9,29.99,NW,318,0.0,0.0,89,0.00,,,0.00,0,WeatherCatV1.23B14,2013-11-08 10:37:00,
2013-11-08 02:42:00,43.8,40.8,29.99,NW,318,0.0,0.0,89,0.00,,,0.00,0,WeatherCatV1.23B14,2013-11-08 10:42:00,
2013-11-08 02:47:00,43.8,41.1,29.99,NW,319,0.0,0.0,90,0.00,,,0.00,0,WeatherCatV1.23B14,2013-11-08 10:47:00,
2013-11-08 02:57:00,43.8,41.1,29.99,NW,315,0.0,0.0,90,0.00,,,0.00,0,WeatherCatV1.23B14,2013-11-08 10:57:00,
2013-11-08 03:02:00,43.8,41.1,29.99,NW,316,0.0,0.0,90,0.00,,,0.00,0,WeatherCatV1.23B14,2013-11-08 11:02:00,
2013-11-08 03:07:00,43.8,41.1,29.99,NW,312,0.0,0.0,90,0.00,,,0.00,0,WeatherCatV1.23B14,2013-11-08 11:07:00,
2013-11-08 03:12:00,43.6,40.9,29.99,NW,315,0.0,0.0,90,0.00,,,0.00,0,WeatherCatV1.23B14,2013-11-08 11:12:00,
2013-11-08 03:17:00,43.6,40.9,29.99,NW,305,0.0,0.0,90,0.00,,,0.00,0,WeatherCatV1.23B14,2013-11-08 11:17:00,
2013-11-08 03:22:00,43.5,40.8,29.99,NW,319,0.0,0.0,90,0.00,,,0.00,0,WeatherCatV1.23B14,2013-11-08 11:22:00,
2013-11-08 03:27:00,43.5,40.8,29.99,NW,319,0.0,0.0,90,0.00,,,0.00,0,WeatherCatV1.23B14,2013-11-08 11:27:00,
2013-11-08 03:32:00,43.3,40.6,29.99,NW,316,0.0,0.0,90,0.00,,,0.00,0,WeatherCatV1.23B14,2013-11-08 11:32:00,
2013-11-08 03:37:00,43.3,40.6,29.99,NW,313,0.0,0.0,90,0.00,,,0.00,0,WeatherCatV1.23B14,2013-11-08 11:37:00,
2013-11-08 03:42:00,43.2,40.5,29.99,NW,312,0.0,0.0,90,0.00,,,0.00,0,WeatherCatV1.23B14,2013-11-08 11:42:00,
2013-11-08 03:47:00,43.2,40.5,29.99,NW,306,0.0,0.0,90,0.00,,,0.00,0,WeatherCatV1.23B14,2013-11-08 11:47:00,
2013-11-08 03:52:00,43.1,40.4,29.99,NW,323,0.0,0.0,90,0.00,,,0.00,0,WeatherCatV1.23B14,2013-11-08 11:52:00,
2013-11-08 03:57:00,43.1,40.4,29.99,NW,313,0.0,0.0,90,0.00,,,0.00,0,WeatherCatV1.23B14,2013-11-08 11:57:00,
2013-11-08 04:02:00,42.9,40.5,29.98,NW,318,0.0,0.0,91,0.00,,,0.00,0,WeatherCatV1.23B14,2013-11-08 12:02:00,
2013-11-08 04:07:00,42.9,40.5,29.98,NW,319,0.0,0.0,91,0.00,,,0.00,0,WeatherCatV1.23B14,2013-11-08 12:07:00,
2013-11-08 04:12:00,42.8,40.4,29.98,NW,315,0.0,0.0,91,0.00,,,0.00,0,WeatherCatV1.23B14,2013-11-08 12:12:00,
2013-11-08 04:17:00,42.8,40.4,29.98,NW,323,0.0,0.0,91,0.00,,,0.00,0,WeatherCatV1.23B14,2013-11-08 12:17:00,
2013-11-08 04:22:00,42.6,40.2,29.98,NW,312,0.0,0.0,91,0.00,,,0.00,0,WeatherCatV1.23B14,2013-11-08 12:22:00,
2013-11-08 04:27:00,42.6,40.2,29.98,WNW,298,0.0,0.0,91,0.00,,,0.00,0,WeatherCatV1.23B14,2013-11-08 12:27:00,
2013-11-08 04:32:00,42.6,40.2,29.98,NW,305,0.0,0.0,91,0.00,,,0.00,0,WeatherCatV1.23B14,2013-11-08 12:32:00,
2013-11-08 04:37:00,42.5,40.1,29.98,WNW,302,0.0,0.0,91,0.00,,,0.00,0,WeatherCatV1.23B14,2013-11-08 12:37:00,
2013-11-08 04:47:00,42.5,40.1,29.98,West,281,0.0,0.0,91,0.00,,,0.00,0,WeatherCatV1.23B14,2013-11-08 12:47:00,
2013-11-08 04:52:00,42.5,40.1,29.98,WNW,298,0.0,0.0,91,0.00,,,0.00,0,WeatherCatV1.23B14,2013-11-08 12:52:00,
2013-11-08 04:57:00,42.3,39.9,29.98,WNW,296,0.0,0.0,91,0.00,,,0.00,0,WeatherCatV1.23B14,2013-11-08 12:57:00,
2013-11-08 05:02:00,42.3,39.9,29.98,WNW,295,0.0,0.0,91,0.00,,,0.00,0,WeatherCatV1.23B14,2013-11-08 13:02:00,
2013-11-08 05:07:00,42.3,39.9,29.98,WNW,298,0.0,0.0,91,0.00,,,0.00,0,WeatherCatV1.23B14,2013-11-08 13:07:00,
2013-11-08 05:17:00,42.1,39.7,29.97,WNW,287,0.0,0.0,91,0.00,,,0.00,0,WeatherCatV1.23B14,2013-11-08 13:17:00,
2013-11-08 05:22:00,42.1,39.7,29.97,WNW,294,0.0,0.0,91,0.00,,,0.00,0,WeatherCatV1.23B14,2013-11-08 13:22:00,
2013-11-08 05:27:00,41.9,39.5,29.97,WNW,284,0.0,0.0,91,0.00,,,0.00,0,WeatherCatV1.23B14,2013-11-08 13:27:00,
2013-11-08 05:32:00,41.8,39.4,29.98,WNW,291,0.0,0.0,91,0.00,,,0.00,0,WeatherCatV1.23B14,2013-11-08 13:32:00,
2013-11-08 05:42:00,41.8,39.7,29.98,WNW,292,0.0,0.0,92,0.00,,,0.00,0,WeatherCatV1.23B14,2013-11-08 13:42:00,
2013-11-08 05:52:00,41.9,39.8,29.98,WNW,285,0.0,0.0,92,0.00,,,0.00,0,WeatherCatV1.23B14,2013-11-08 13:52:00,
2013-11-08 05:57:00,41.9,39.8,29.98,WNW,285,0.0,0.0,92,0.00,,,0.00,0,WeatherCatV1.23B14,2013-11-08 13:57:00,
2013-11-08 06:02:00,42.1,40.0,29.98,West,280,0.0,0.0,92,0.00,,,0.00,0,WeatherCatV1.23B14,2013-11-08 14:02:00,
2013-11-08 06:07:00,42.2,40.0,29.98,WNW,292,0.0,0.0,92,0.00,,,0.00,0,WeatherCatV1.23B14,2013-11-08 14:07:00,
2013-11-08 06:12:00,42.5,40.3,29.98,WNW,287,0.0,0.0,92,0.00,,,0.00,0,WeatherCatV1.23B14,2013-11-08 14:12:00,
2013-11-08 06:17:00,42.8,40.6,29.98,West,277,0.0,0.0,92,0.00,,,0.00,0,WeatherCatV1.23B14,2013-11-08 14:17:00,
2013-11-08 06:22:00,43.1,40.9,29.98,WNW,288,0.0,0.0,92,0.00,,,0.00,0,WeatherCatV1.23B14,2013-11-08 14:22:00,
2013-11-08 06:27:00,43.3,41.4,29.98,WNW,285,0.0,0.0,93,0.00,,,0.00,0,WeatherCatV1.23B14,2013-11-08 14:27:00,
2013-11-08 06:32:00,43.5,41.6,29.98,WNW,285,0.0,0.0,93,0.00,,,0.00,0,WeatherCatV1.23B14,2013-11-08 14:32:00,
2013-11-08 06:37:00,43.6,41.7,29.98,WNW,288,0.0,0.0,93,0.00,,,0.00,0,WeatherCatV1.23B14,2013-11-08 14:37:00,
2013-11-08 06:42:00,43.8,41.9,29.98,SW,230,0.0,0.0,93,0.00,,,0.00,0,WeatherCatV1.23B14,2013-11-08 14:42:00,
2013-11-08 06:47:00,44.1,42.2,29.98,South,178,0.0,0.0,93,0.00,,,0.00,0,WeatherCatV1.23B14,2013-11-08 14:47:00,
2013-11-08 06:57:00,44.3,42.4,29.98,South,171,0.0,0.0,93,0.00,,,0.00,0,WeatherCatV1.23B14,2013-11-08 14:57:00,
2013-11-08 07:07:00,44.9,43.3,29.99,South,169,0.0,0.0,94,0.00,,,0.00,11,WeatherCatV1.23B14,2013-11-08 15:07:00,
2013-11-08 07:12:00,45.1,43.5,29.99,SSE,161,0.0,0.0,94,0.00,,,0.00,11,WeatherCatV1.23B14,2013-11-08 15:12:00,
2013-11-08 07:22:00,45.8,44.2,29.99,NW,315,0.0,0.0,94,0.00,,,0.00,21,WeatherCatV1.23B14,2013-11-08 15:22:00,
2013-11-08 07:27:00,46.1,44.5,29.99,NW,316,0.0,0.0,94,0.00,,,0.00,30,WeatherCatV1.23B14,2013-11-08 15:27:00,
2013-11-08 07:32:00,46.4,44.8,29.99,NW,304,0.0,0.0,94,0.00,,,0.00,30,WeatherCatV1.23B14,2013-11-08 15:32:00,
2013-11-08 07:37:00,46.7,45.1,29.99,WNW,299,0.0,0.0,94,0.00,,,0.00,30,WeatherCatV1.23B14,2013-11-08 15:37:00,
2013-11-08 07:47:00,47.6,46.0,29.99,West,280,0.0,0.0,94,0.00,,,0.00,44,WeatherCatV1.23B14,2013-11-08 15:47:00,
2013-11-08 07:52:00,47.7,46.1,29.99,WSW,257,0.0,0.0,94,0.00,,,0.00,48,WeatherCatV1.23B14,2013-11-08 15:52:00,
2013-11-08 07:57:00,48.2,46.5,29.99,SW,227,0.0,0.0,94,0.00,,,0.00,48,WeatherCatV1.23B14,2013-11-08 15:57:00,
2013-11-08 08:02:00,48.9,47.2,29.99,SW,236,0.0,0.0,94,0.00,,,0.00,48,WeatherCatV1.23B14,2013-11-08 16:02:00,
2013-11-08 08:07:00,49.5,48.1,29.99,WSW,240,0.0,0.0,95,0.00,,,0.00,107,WeatherCatV1.23B14,2013-11-08 16:07:00,
2013-11-08 08:12:00,49.9,48.5,29.99,WSW,250,0.0,0.0,95,0.00,,,0.00,107,WeatherCatV1.23B14,2013-11-08 16:12:00,
2013-11-08 08:17:00,50.2,48.5,29.99,NW,313,0.0,0.0,94,0.00,,,0.00,107,WeatherCatV1.23B14,2013-11-08 16:17:00,
2013-11-08 08:22:00,50.7,49.0,29.99,NNW,336,0.0,0.0,94,0.00,,,0.00,107,WeatherCatV1.23B14,2013-11-08 16:22:00,
2013-11-08 08:27:00,50.8,49.1,29.99,NNW,347,0.0,0.0,94,0.00,,,0.00,134,WeatherCatV1.23B14,2013-11-08 16:27:00,
2013-11-08 08:32:00,51.3,49.6,29.99,NW,326,0.0,0.0,94,0.00,,,0.00,111,WeatherCatV1.23B14,2013-11-08 16:32:00,
2013-11-08 08:37:00,51.7,50.0,29.99,NNW,340,0.0,0.0,94,0.00,,,0.00,111,WeatherCatV1.23B14,2013-11-08 16:37:00,
2013-11-08 08:47:00,52.8,51.1,29.99,NNW,333,0.0,0.0,94,0.00,,,0.00,287,WeatherCatV1.23B14,2013-11-08 16:47:00,
2013-11-08 08:52:00,53.2,51.5,29.99,North,353,0.0,0.0,94,0.00,,,0.00,287,WeatherCatV1.23B14,2013-11-08 16:52:00,
2013-11-08 08:57:00,54.1,52.4,29.99,North,354,0.0,0.0,94,0.00,,,0.00,331,WeatherCatV1.23B14,2013-11-08 16:57:00,
2013-11-08 09:02:00,54.7,52.4,29.99,North,353,0.0,0.0,92,0.00,,,0.00,355,WeatherCatV1.23B14,2013-11-08 17:02:00,
2013-11-08 09:07:00,55.6,53.3,29.99,North,354,0.0,0.0,92,0.00,,,0.00,378,WeatherCatV1.23B14,2013-11-08 17:07:00,
2013-11-08 09:12:00,56.5,54.2,29.99,North,353,0.0,0.0,92,0.00,,,0.00,391,WeatherCatV1.23B14,2013-11-08 17:12:00,
2013-11-08 09:17:00,57.0,54.1,29.99,North,349,0.0,0.0,90,0.00,,,0.00,401,WeatherCatV1.23B14,2013-11-08 17:17:00,
2013-11-08 09:27:00,58.3,53.8,29.99,NNW,332,0.0,0.0,85,0.00,,,0.00,424,WeatherCatV1.23B14,2013-11-08 17:27:00,
2013-11-08 09:32:00,59.0,53.2,29.99,NW,323,1.0,1.0,81,0.00,,,0.00,438,WeatherCatV1.23B14,2013-11-08 17:32:00,
2013-11-08 09:37:00,59.8,52.9,29.99,NNW,343,1.0,1.0,78,0.00,,,0.00,450,WeatherCatV1.23B14,2013-11-08 17:37:00,
2013-11-08 09:42:00,59.9,52.3,29.99,NW,308,1.0,3.0,76,0.00,,,0.00,452,WeatherCatV1.23B14,2013-11-08 17:42:00,
2013-11-08 09:47:00,60.1,52.5,29.99,North,353,0.0,1.0,76,0.00,,,0.00,468,WeatherCatV1.23B14,2013-11-08 17:47:00,
2013-11-08 09:52:00,60.5,52.2,29.99,NNW,339,0.0,0.0,74,0.00,,,0.00,482,WeatherCatV1.23B14,2013-11-08 17:52:00,
2013-11-08 09:57:00,61.0,52.7,29.99,NNW,333,0.0,1.0,74,0.00,,,0.00,489,WeatherCatV1.23B14,2013-11-08 17:57:00,
2013-11-08 10:02:00,61.5,52.0,29.99,NW,304,0.0,0.0,71,0.00,,,0.00,500,WeatherCatV1.23B14,2013-11-08 18:02:00,
2013-11-08 10:07:00,61.8,52.3,29.99,NNW,340,0.0,1.0,71,0.00,,,0.00,500,WeatherCatV1.23B14,2013-11-08 18:07:00,
2013-11-08 10:12:00,62.1,52.2,29.99,NNW,336,0.0,0.0,70,0.00,,,0.00,514,WeatherCatV1.23B14,2013-11-08 18:12:00,
2013-11-08 10:22:00,62.9,52.2,29.99,NNW,330,0.0,1.0,68,0.00,,,0.00,524,WeatherCatV1.23B14,2013-11-08 18:22:00,
2013-11-08 10:27:00,63.2,52.5,29.99,NNW,343,0.0,1.0,68,0.00,,,0.00,537,WeatherCatV1.23B14,2013-11-08 18:27:00,
2013-11-08 10:32:00,63.4,51.8,29.99,NNW,329,0.0,0.0,66,0.00,,,0.00,544,WeatherCatV1.23B14,2013-11-08 18:32:00,
2013-11-08 10:37:00,63.5,51.5,29.99,NNW,329,0.0,0.0,65,0.00,,,0.00,547,WeatherCatV1.23B14,2013-11-08 18:37:00,
2013-11-08 10:42:00,63.7,51.7,29.99,NNW,337,0.0,1.0,65,0.00,,,0.00,554,WeatherCatV1.23B14,2013-11-08 18:42:00,
2013-11-08 10:47:00,63.9,51.5,29.98,NNW,346,0.0,2.0,64,0.00,,,0.00,554,WeatherCatV1.23B14,2013-11-08 18:47:00,
2013-11-08 10:52:00,63.9,51.5,29.98,NNW,339,0.0,0.0,64,0.00,,,0.00,563,WeatherCatV1.23B14,2013-11-08 18:52:00,
2013-11-08 10:57:00,64.5,51.2,29.98,NNW,344,0.0,1.0,62,0.00,,,0.00,568,WeatherCatV1.23B14,2013-11-08 18:57:00,
2013-11-08 11:02:00,65.5,51.7,29.98,NNW,339,0.0,1.0,61,0.00,,,0.00,575,WeatherCatV1.23B14,2013-11-08 19:02:00,
2013-11-08 11:07:00,66.6,52.7,29.98,NNW,340,0.0,1.0,61,0.00,,,0.00,582,WeatherCatV1.23B14,2013-11-08 19:07:00,
2013-11-08 11:12:00,67.3,52.5,29.98,NNW,336,0.0,0.0,59,0.00,,,0.00,584,WeatherCatV1.23B14,2013-11-08 19:12:00,
2013-11-08 11:17:00,67.9,52.1,29.97,NNW,332,0.0,0.0,57,0.00,,,0.00,586,WeatherCatV1.23B14,2013-11-08 19:17:00,
2013-11-08 11:22:00,68.6,52.3,29.97,North,354,1.0,2.0,56,0.00,,,0.00,591,WeatherCatV1.23B14,2013-11-08 19:22:00,
2013-11-08 11:27:00,69.1,52.2,29.97,North,356,0.0,3.0,55,0.00,,,0.00,595,WeatherCatV1.23B14,2013-11-08 19:27:00,
2013-11-08 11:32:00,69.1,52.2,29.96,North,353,0.0,0.0,55,0.00,,,0.00,595,WeatherCatV1.23B14,2013-11-08 19:32:00,
2013-11-08 11:37:00,69.1,51.7,29.96,North,353,0.0,1.0,54,0.00,,,0.00,595,WeatherCatV1.23B14,2013-11-08 19:37:00,
2013-11-08 11:42:00,69.3,52.4,29.96,North,350,0.0,0.0,55,0.00,,,0.00,598,WeatherCatV1.23B14,2013-11-08 19:42:00,
2013-11-08 11:47:00,69.6,51.7,29.95,North,349,0.0,0.0,53,0.00,,,0.00,598,WeatherCatV1.23B14,2013-11-08 19:47:00,
2013-11-08 11:52:00,70.4,51.9,29.95,NNW,337,0.0,0.0,52,0.00,,,0.00,598,WeatherCatV1.23B14,2013-11-08 19:52:00,
2013-11-08 11:57:00,70.9,52.4,29.95,NNW,335,0.0,1.0,52,0.00,,,0.00,600,WeatherCatV1.23B14,2013-11-08 19:57:00,
2013-11-08 12:02:00,71.1,52.6,29.94,WNW,301,0.0,0.0,52,0.00,,,0.00,600,WeatherCatV1.23B14,2013-11-08 20:02:00,
2013-11-08 12:07:00,71.1,52.0,29.94,NW,304,1.0,1.0,51,0.00,,,0.00,596,WeatherCatV1.23B14,2013-11-08 20:07:00,
2013-11-08 12:12:00,71.1,52.0,29.94,NW,315,1.0,1.0,51,0.00,,,0.00,596,WeatherCatV1.23B14,2013-11-08 20:12:00,
2013-11-08 12:17:00,70.9,51.3,29.93,NW,322,3.0,3.0,50,0.00,,,0.00,593,WeatherCatV1.23B14,2013-11-08 20:17:00,
2013-11-08 12:22:00,70.3,50.8,29.93,NW,325,2.0,2.0,50,0.00,,,0.00,591,WeatherCatV1.23B14,2013-11-08 20:22:00,
2013-11-08 12:27:00,70.3,51.3,29.93,NW,326,0.0,1.0,51,0.00,,,0.00,591,WeatherCatV1.23B14,2013-11-08 20:27:00,
2013-11-08 12:32:00,70.3,51.8,29.93,NNW,333,1.0,3.0,52,0.00,,,0.00,586,WeatherCatV1.23B14,2013-11-08 20:32:00,
2013-11-08 12:37:00,70.3,51.8,29.93,NNW,330,1.0,1.0,52,0.00,,,0.00,582,WeatherCatV1.23B14,2013-11-08 20:37:00,
2013-11-08 12:42:00,70.3,51.3,29.93,NW,309,0.0,2.0,51,0.00,,,0.00,577,WeatherCatV1.23B14,2013-11-08 20:42:00,
2013-11-08 12:52:00,70.3,51.8,29.91,NW,326,1.0,1.0,52,0.00,,,0.00,570,WeatherCatV1.23B14,2013-11-08 20:52:00,
2013-11-08 12:57:00,71.3,51.7,29.91,NNW,339,1.0,1.0,50,0.00,,,0.00,561,WeatherCatV1.23B14,2013-11-08 20:57:00,
2013-11-08 13:02:00,72.1,51.9,29.91,NW,323,0.0,1.0,49,0.00,,,0.00,560,WeatherCatV1.23B14,2013-11-08 21:02:00,
2013-11-08 13:07:00,72.7,52.4,29.91,NNW,347,0.0,0.0,49,0.00,,,0.00,552,WeatherCatV1.23B14,2013-11-08 21:07:00,
2013-11-08 13:17:00,73.2,51.2,29.91,NNW,347,3.0,3.0,46,0.00,,,0.00,551,WeatherCatV1.23B14,2013-11-08 21:17:00,
2013-11-08 13:22:00,73.0,51.0,29.91,NNW,346,0.0,5.0,46,0.00,,,0.00,535,WeatherCatV1.23B14,2013-11-08 21:22:00,
2013-11-08 13:32:00,73.3,51.2,29.90,NNW,347,0.0,0.0,46,0.00,,,0.00,526,WeatherCatV1.23B14,2013-11-08 21:32:00,
2013-11-08 13:37:00,73.5,51.4,29.90,NNW,346,0.0,0.0,46,0.00,,,0.00,526,WeatherCatV1.23B14,2013-11-08 21:37:00,
2013-11-08 13:42:00,73.5,50.8,29.90,North,349,1.0,2.0,45,0.00,,,0.00,526,WeatherCatV1.23B14,2013-11-08 21:42:00,
2013-11-08 13:47:00,73.9,51.2,29.89,NNW,343,1.0,1.0,45,0.00,,,0.00,494,WeatherCatV1.23B14,2013-11-08 21:47:00,
2013-11-08 13:52:00,74.2,51.5,29.89,NW,325,0.0,0.0,45,0.00,,,0.00,486,WeatherCatV1.23B14,2013-11-08 21:52:00,
2013-11-08 13:57:00,73.7,51.0,29.89,NNW,332,0.0,1.0,45,0.00,,,0.00,479,WeatherCatV1.23B14,2013-11-08 21:57:00,
2013-11-08 14:02:00,74.0,51.9,29.88,North,349,0.0,1.0,46,0.00,,,0.00,472,WeatherCatV1.23B14,2013-11-08 22:02:00,
2013-11-08 14:07:00,74.2,52.1,29.88,North,349,0.0,1.0,46,0.00,,,0.00,456,WeatherCatV1.23B14,2013-11-08 22:07:00,
2013-11-08 14:12:00,74.7,51.3,29.88,North,353,0.0,0.0,44,0.00,,,0.00,456,WeatherCatV1.23B14,2013-11-08 22:12:00,
2013-11-08 14:17:00,75.4,51.3,29.88,NNW,347,0.0,0.0,43,0.00,,,0.00,438,WeatherCatV1.23B14,2013-11-08 22:17:00,
2013-11-08 14:22:00,76.0,51.2,29.88,NNW,339,0.0,0.0,42,0.00,,,0.00,422,WeatherCatV1.23B14,2013-11-08 22:22:00,
2013-11-08 14:27:00,76.1,51.3,29.88,NNW,329,0.0,0.0,42,0.00,,,0.00,413,WeatherCatV1.23B14,2013-11-08 22:27:00,
2013-11-08 14:32:00,76.7,51.9,29.88,SW,234,0.0,0.0,42,0.00,,,0.00,413,WeatherCatV1.23B14,2013-11-08 22:32:00,
2013-11-08 14:37:00,76.7,47.7,29.88,SW,219,0.0,3.0,36,0.00,,,0.00,387,WeatherCatV1.23B14,2013-11-08 22:37:00,
2013-11-08 14:47:00,76.0,47.1,29.88,North,0,1.0,3.0,36,0.00,,,0.00,366,WeatherCatV1.23B14,2013-11-08 22:47:00,
2013-11-08 14:52:00,75.6,46.8,29.88,North,0,1.0,3.0,36,0.00,,,0.00,350,WeatherCatV1.23B14,2013-11-08 22:52:00,
2013-11-08 14:57:00,75.6,47.5,29.88,NW,311,0.0,0.0,37,0.00,,,0.00,336,WeatherCatV1.23B14,2013-11-08 22:57:00,
2013-11-08 15:02:00,76.0,49.9,29.88,North,350,1.0,2.0,40,0.00,,,0.00,336,WeatherCatV1.23B14,2013-11-08 23:02:00,
2013-11-08 15:07:00,76.1,50.7,29.88,North,0,0.0,1.0,41,0.00,,,0.00,299,WeatherCatV1.23B14,2013-11-08 23:07:00,
2013-11-08 15:12:00,76.0,50.6,29.88,North,0,0.0,0.0,41,0.00,,,0.00,299,WeatherCatV1.23B14,2013-11-08 23:12:00,
2013-11-08 15:17:00,76.0,50.6,29.88,North,0,0.0,0.0,41,0.00,,,0.00,299,WeatherCatV1.23B14,2013-11-08 23:17:00,
2013-11-08 15:22:00,75.4,50.0,29.88,North,357,0.0,1.0,41,0.00,,,0.00,299,WeatherCatV1.23B14,2013-11-08 23:22:00,
2013-11-08 15:32:00,74.7,49.4,29.88,North,353,0.0,1.0,41,0.00,,,0.00,164,WeatherCatV1.23B14,2013-11-08 23:32:00,
2013-11-08 15:37:00,74.9,49.6,29.88,North,350,0.0,0.0,41,0.00,,,0.00,164,WeatherCatV1.23B14,2013-11-08 23:37:00,
2013-11-08 15:42:00,75.1,50.4,29.88,NNW,344,0.0,0.0,42,0.00,,,0.00,90,WeatherCatV1.23B14,2013-11-08 23:42:00,
2013-11-08 15:47:00,74.9,50.2,29.87,NNW,343,0.0,1.0,42,0.00,,,0.00,83,WeatherCatV1.23B14,2013-11-08 23:47:00,
2013-11-08 15:52:00,74.6,50.0,29.87,North,349,0.0,0.0,42,0.00,,,0.00,174,WeatherCatV1.23B14,2013-11-08 23:52:00,
2013-11-08 16:02:00,73.2,49.3,29.87,NNW,343,0.0,2.0,43,0.00,,,0.00,130,WeatherCatV1.23B14,2013-11-09 00:02:00,
2013-11-08 16:07:00,72.5,50.5,29.87,North,353,0.0,0.0,46,0.00,,,0.00,23,WeatherCatV1.23B14,2013-11-09 00:07:00,
2013-11-08 16:12:00,72.1,49.0,29.87,North,353,0.0,0.0,44,0.00,,,0.00,23,WeatherCatV1.23B14,2013-11-09 00:12:00,
2013-11-08 16:17:00,71.8,50.5,29.87,North,350,0.0,0.0,47,0.00,,,0.00,18,WeatherCatV1.23B14,2013-11-09 00:17:00,
2013-11-08 16:22:00,71.1,49.8,29.87,North,350,0.0,0.0,47,0.00,,,0.00,18,WeatherCatV1.23B14,2013-11-09 00:22:00,
2013-11-08 16:27:00,70.4,49.8,29.87,North,0,0.0,2.0,48,0.00,,,0.00,16,WeatherCatV1.23B14,2013-11-09 00:27:00,
2013-11-08 16:32:00,70.1,50.0,29.87,North,350,0.0,0.0,49,0.00,,,0.00,14,WeatherCatV1.23B14,2013-11-09 00:32:00,
2013-11-08 16:37:00,69.4,49.4,29.87,North,353,0.0,0.0,49,0.00,,,0.00,14,WeatherCatV1.23B14,2013-11-09 00:37:00,
2013-11-08 16:42:00,69.1,49.1,29.87,North,349,0.0,0.0,49,0.00,,,0.00,11,WeatherCatV1.23B14,2013-11-09 00:42:00,
2013-11-08 16:47:00,68.6,49.7,29.87,NNW,336,0.0,0.0,51,0.00,,,0.00,9,WeatherCatV1.23B14,2013-11-09 00:47:00,
2013-11-08 16:52:00,67.8,49.0,29.87,NNW,346,0.0,0.0,51,0.00,,,0.00,9,WeatherCatV1.23B14,2013-11-09 00:52:00,
2013-11-08 16:57:00,67.1,50.4,29.87,NNW,340,0.0,0.0,55,0.00,,,0.00,9,WeatherCatV1.23B14,2013-11-09 00:57:00,
2013-11-08 17:07:00,65.6,50.0,29.87,NNW,330,0.0,0.0,57,0.00,,,0.00,0,WeatherCatV1.23B14,2013-11-09 01:07:00,
2013-11-08 17:17:00,64.3,50.1,29.87,NW,323,0.0,0.0,60,0.00,,,0.00,0,WeatherCatV1.23B14,2013-11-09 01:17:00,
2013-11-08 17:22:00,63.7,50.0,29.87,NNW,339,0.0,0.0,61,0.00,,,0.00,0,WeatherCatV1.23B14,2013-11-09 01:22:00,
2013-11-08 17:27:00,63.1,50.3,29.87,NNW,339,0.0,0.0,63,0.00,,,0.00,0,WeatherCatV1.23B14,2013-11-09 01:27:00,
2013-11-08 17:32:00,62.4,50.1,29.87,NNW,344,0.0,0.0,64,0.00,,,0.00,0,WeatherCatV1.23B14,2013-11-09 01:32:00,
2013-11-08 17:37:00,62.0,50.1,29.87,NNW,343,0.0,0.0,65,0.00,,,0.00,0,WeatherCatV1.23B14,2013-11-09 01:37:00,
2013-11-08 17:42:00,61.6,49.7,29.87,NNW,333,0.0,0.0,65,0.00,,,0.00,0,WeatherCatV1.23B14,2013-11-09 01:42:00,
2013-11-08 17:47:00,61.3,49.8,29.87,NNW,337,0.0,0.0,66,0.00,,,0.00,0,WeatherCatV1.23B14,2013-11-09 01:47:00,
2013-11-08 17:52:00,61.0,49.6,29.87,NNW,336,0.0,0.0,66,0.00,,,0.00,0,WeatherCatV1.23B14,2013-11-09 01:52:00,
2013-11-08 17:57:00,60.7,49.3,29.87,NNW,329,0.0,0.0,66,0.00,,,0.00,0,WeatherCatV1.23B14,2013-11-09 01:57:00,
2013-11-08 18:02:00,60.4,49.4,29.88,NNW,333,0.0,0.0,67,0.00,,,0.00,0,WeatherCatV1.23B14,2013-11-09 02:02:00,
2013-11-08 18:07:00,60.1,49.1,29.88,NNW,340,0.0,0.0,67,0.00,,,0.00,0,WeatherCatV1.23B14,2013-11-09 02:07:00,
2013-11-08 18:12:00,59.6,48.6,29.88,NW,316,0.0,0.0,67,0.00,,,0.00,0,WeatherCatV1.23B14,2013-11-09 02:12:00,
2013-11-08 18:17:00,59.2,48.6,29.88,West,265,0.0,0.0,68,0.00,,,0.00,0,WeatherCatV1.23B14,2013-11-09 02:17:00,
2013-11-08 18:22:00,58.9,48.4,29.88,West,267,0.0,0.0,68,0.00,,,0.00,0,WeatherCatV1.23B14,2013-11-09 02:22:00,
2013-11-08 18:27:00,58.6,48.1,29.88,West,272,0.0,0.0,68,0.00,,,0.00,0,WeatherCatV1.23B14,2013-11-09 02:27:00,
2013-11-08 18:32:00,58.1,46.8,29.88,West,270,0.0,0.0,66,0.00,,,0.00,0,WeatherCatV1.23B14,2013-11-09 02:32:00,
2013-11-08 18:37:00,57.5,45.4,29.88,WNW,292,0.0,0.0,64,0.00,,,0.00,0,WeatherCatV1.23B14,2013-11-09 02:37:00,
2013-11-08 18:42:00,57.2,45.1,29.88,West,270,0.0,0.0,64,0.00,,,0.00,0,WeatherCatV1.23B14,2013-11-09 02:42:00,
2013-11-08 18:47:00,56.7,43.0,29.88,West,274,0.0,0.0,60,0.00,,,0.00,0,WeatherCatV1.23B14,2013-11-09 02:47:00,
2013-11-08 18:52:00,56.6,42.9,29.88,WSW,247,0.0,0.0,60,0.00,,,0.00,0,WeatherCatV1.23B14,2013-11-09 02:52:00,
2013-11-08 18:57:00,56.3,42.6,29.88,West,267,0.0,0.0,60,0.00,,,0.00,0,WeatherCatV1.23B14,2013-11-09 02:57:00,
2013-11-08 19:07:00,55.9,42.7,29.88,WSW,251,0.0,0.0,61,0.00,,,0.00,0,WeatherCatV1.23B14,2013-11-09 03:07:00,
2013-11-08 19:12:00,55.7,42.5,29.88,West,264,0.0,0.0,61,0.00,,,0.00,0,WeatherCatV1.23B14,2013-11-09 03:12:00,
2013-11-08 19:17:00,55.6,42.8,29.89,West,261,0.0,0.0,62,0.00,,,0.00,0,WeatherCatV1.23B14,2013-11-09 03:17:00,
2013-11-08 19:22:00,55.3,42.5,29.89,WSW,239,0.0,0.0,62,0.00,,,0.00,0,WeatherCatV1.23B14,2013-11-09 03:22:00,
2013-11-08 19:27:00,55.1,42.7,29.89,SE,127,0.0,0.0,63,0.00,,,0.00,0,WeatherCatV1.23B14,2013-11-09 03:27:00,
2013-11-08 19:32:00,54.7,42.3,29.89,WSW,240,0.0,0.0,63,0.00,,,0.00,0,WeatherCatV1.23B14,2013-11-09 03:32:00,
2013-11-08 19:42:00,54.2,43.5,29.89,West,275,0.0,0.0,67,0.00,,,0.00,0,WeatherCatV1.23B14,2013-11-09 03:42:00,
2013-11-08 19:47:00,53.6,42.9,29.89,WNW,299,0.0,0.0,67,0.00,,,0.00,0,WeatherCatV1.23B14,2013-11-09 03:47:00,
2013-11-08 19:52:00,53.1,42.4,29.89,WNW,295,0.0,0.0,67,0.00,,,0.00,0,WeatherCatV1.23B14,2013-11-09 03:52:00,
2013-11-08 19:57:00,53.1,42.8,29.89,WNW,294,0.0,0.0,68,0.00,,,0.00,0,WeatherCatV1.23B14,2013-11-09 03:57:00,
2013-11-08 20:02:00,52.5,42.2,29.89,WNW,294,0.0,0.0,68,0.00,,,0.00,0,WeatherCatV1.23B14,2013-11-09 04:02:00,
2013-11-08 20:07:00,52.0,42.5,29.89,West,260,0.0,0.0,70,0.00,,,0.00,0,WeatherCatV1.23B14,2013-11-09 04:07:00,
2013-11-08 20:17:00,51.6,42.5,29.89,West,280,0.0,0.0,71,0.00,,,0.00,0,WeatherCatV1.23B14,2013-11-09 04:17:00,
2013-11-08 20:22:00,51.1,42.0,29.89,WSW,258,0.0,0.0,71,0.00,,,0.00,0,WeatherCatV1.23B14,2013-11-09 04:22:00,
2013-11-08 20:27:00,50.8,41.7,29.89,West,263,0.0,0.0,71,0.00,,,0.00,0,WeatherCatV1.23B14,2013-11-09 04:27:00,
2013-11-08 20:32:00,50.4,42.1,29.90,West,264,0.0,0.0,73,0.00,,,0.00,0,WeatherCatV1.23B14,2013-11-09 04:32:00,
2013-11-08 20:42:00,49.9,42.0,29.90,West,268,0.0,0.0,74,0.00,,,0.00,0,WeatherCatV1.23B14,2013-11-09 04:42:00,
2013-11-08 20:47:00,49.5,41.6,29.90,West,270,0.0,0.0,74,0.00,,,0.00,0,WeatherCatV1.23B14,2013-11-09 04:47:00,
2013-11-08 20:52:00,49.5,42.2,29.90,West,277,0.0,0.0,76,0.00,,,0.00,0,WeatherCatV1.23B14,2013-11-09 04:52:00,
2013-11-08 20:57:00,49.1,41.9,29.90,West,264,0.0,0.0,76,0.00,,,0.00,0,WeatherCatV1.23B14,2013-11-09 04:57:00,
2013-11-08 21:02:00,48.8,41.9,29.90,West,280,0.0,0.0,77,0.00,,,0.00,0,WeatherCatV1.23B14,2013-11-09 05:02:00,
2013-11-08 21:07:00,48.5,42.0,29.90,West,272,0.0,0.0,78,0.00,,,0.00,0,WeatherCatV1.23B14,2013-11-09 05:07:00,
2013-11-08 21:12:00,48.3,41.8,29.90,WSW,253,0.0,0.0,78,0.00,,,0.00,0,WeatherCatV1.23B14,2013-11-09 05:12:00,
2013-11-08 21:17:00,48.0,41.5,29.91,WNW,299,0.0,0.0,78,0.00,,,0.00,0,WeatherCatV1.23B14,2013-11-09 05:17:00,
2013-11-08 21:22:00,47.7,41.2,29.91,WNW,301,0.0,0.0,78,0.00,,,0.00,0,WeatherCatV1.23B14,2013-11-09 05:22:00,
2013-11-08 21:27:00,47.4,40.9,29.91,WNW,289,0.0,0.0,78,0.00,,,0.00,0,WeatherCatV1.23B14,2013-11-09 05:27:00,
2013-11-08 21:32:00,47.3,41.1,29.91,SSE,148,0.0,0.0,79,0.00,,,0.00,0,WeatherCatV1.23B14,2013-11-09 05:32:00,
2013-11-08 21:37:00,47.0,41.2,29.91,SSE,151,0.0,0.0,80,0.00,,,0.00,0,WeatherCatV1.23B14,2013-11-09 05:37:00,
2013-11-08 21:42:00,46.7,40.5,29.91,South,171,0.0,0.0,79,0.00,,,0.00,0,WeatherCatV1.23B14,2013-11-09 05:42:00,
2013-11-08 21:47:00,46.7,40.5,29.91,East,96,0.0,0.0,79,0.00,,,0.00,0,WeatherCatV1.23B14,2013-11-09 05:47:00,
2013-11-08 21:52:00,46.4,40.2,29.91,ESE,113,0.0,0.0,79,0.00,,,0.00,0,WeatherCatV1.23B14,2013-11-09 05:52:00,
2013-11-08 21:57:00,46.1,40.0,29.91,ESE,123,0.0,0.0,79,0.00,,,0.00,0,WeatherCatV1.23B14,2013-11-09 05:57:00,
2013-11-08 22:02:00,45.8,40.3,29.91,SE,133,0.0,0.0,81,0.00,,,0.00,0,WeatherCatV1.23B14,2013-11-09 06:02:00,
2013-11-08 22:12:00,45.4,39.9,29.91,SE,127,0.0,0.0,81,0.00,,,0.00,0,WeatherCatV1.23B14,2013-11-09 06:12:00,
2013-11-08 22:22:00,44.9,40.0,29.91,SE,127,0.0,0.0,83,0.00,,,0.00,0,WeatherCatV1.23B14,2013-11-09 06:22:00,
2013-11-08 22:27:00,44.8,40.0,29.91,SSE,157,0.0,0.0,83,0.00,,,0.00,0,WeatherCatV1.23B14,2013-11-09 06:27:00,
2013-11-08 22:32:00,44.5,39.7,29.91,SSE,157,0.0,0.0,83,0.00,,,0.00,0,WeatherCatV1.23B14,2013-11-09 06:32:00,
2013-11-08 22:37:00,44.5,39.7,29.91,SSE,168,0.0,0.0,83,0.00,,,0.00,0,WeatherCatV1.23B14,2013-11-09 06:37:00,
2013-11-08 22:42:00,44.3,39.5,29.91,SSE,148,0.0,0.0,83,0.00,,,0.00,0,WeatherCatV1.23B14,2013-11-09 06:42:00,
2013-11-08 22:47:00,44.1,39.3,29.91,SSE,147,0.0,0.0,83,0.00,,,0.00,0,WeatherCatV1.23B14,2013-11-09 06:47:00,
2013-11-08 22:52:00,43.8,39.0,29.91,SSE,154,0.0,0.0,83,0.00,,,0.00,0,WeatherCatV1.23B14,2013-11-09 06:52:00,
2013-11-08 22:57:00,43.6,39.4,29.91,SSE,167,0.0,0.0,85,0.00,,,0.00,0,WeatherCatV1.23B14,2013-11-09 06:57:00,
2013-11-08 23:02:00,43.5,39.3,29.91,SSE,154,0.0,0.0,85,0.00,,,0.00,0,WeatherCatV1.23B14,2013-11-09 07:02:00,
2013-11-08 23:07:00,43.2,39.0,29.91,SSE,147,0.0,0.0,85,0.00,,,0.00,0,WeatherCatV1.23B14,2013-11-09 07:07:00,
2013-11-08 23:12:00,43.1,38.9,29.91,SSE,151,0.0,0.0,85,0.00,,,0.00,0,WeatherCatV1.23B14,2013-11-09 07:12:00,
2013-11-08 23:17:00,42.8,38.6,29.91,SSE,150,0.0,0.0,85,0.00,,,0.00,0,WeatherCatV1.23B14,2013-11-09 07:17:00,
2013-11-08 23:22:00,42.6,38.4,29.91,SSE,148,0.0,0.0,85,0.00,,,0.00,0,WeatherCatV1.23B14,2013-11-09 07:22:00,
2013-11-08 23:27:00,42.5,38.3,29.91,SW,226,0.0,0.0,85,0.00,,,0.00,0,WeatherCatV1.23B14,2013-11-09 07:27:00,
2013-11-08 23:32:00,42.5,38.3,29.91,SW,223,0.0,0.0,85,0.00,,,0.00,0,WeatherCatV1.23B14,2013-11-09 07:32:00,
2013-11-08 23:37:00,42.3,38.4,29.91,SW,232,0.0,0.0,86,0.00,,,0.00,0,WeatherCatV1.23B14,2013-11-09 07:37:00,
2013-11-08 23:42:00,42.1,38.2,29.91,WSW,254,0.0,0.0,86,0.00,,,0.00,0,WeatherCatV1.23B14,2013-11-09 07:42:00,
2013-11-08 23:47:00,41.9,38.0,29.91,SSW,205,0.0,0.0,86,0.00,,,0.00,0,WeatherCatV1.23B14,2013-11-09 07:47:00,
2013-11-08 23:52:00,41.8,38.2,29.91,SSW,208,0.0,0.0,87,0.00,,,0.00,0,WeatherCatV1.23B14,2013-11-09 07:52:00,
2013-11-08 23:57:00,41.6,38.0,29.91,SE,130,0.0,0.0,87,0.00,,,0.00,0,WeatherCatV1.23B14,2013-11-09 07:57:00,